createdAt,value
2023-01-17T00:02:17.948Z,2.60
2023-01-17T00:05:03.322Z,2.62
2023-01-17T00:07:49.337Z,2.49
2023-01-17T00:10:19.063Z,2.59
2023-01-17T00:12:54.216Z,2.25
2023-01-17T00:15:23.545Z,2.32
2023-01-17T00:17:50.943Z,2.38
2023-01-17T00:20:55.971Z,2.57
2023-01-17T00:24:00.976Z,2.41
2023-01-17T00:26:28.048Z,2.16
2023-01-17T00:28:54.926Z,2.35
2023-01-17T00:31:22.305Z,1.65
2023-01-17T00:33:49.361Z,2.05
2023-01-17T00:36:16.159Z,2.45
2023-01-17T00:38:43.285Z,2.22
2023-01-17T00:41:13.185Z,2.11
2023-01-17T00:43:59.132Z,2.29
2023-01-17T00:46:44.784Z,2.43
2023-01-17T00:49:30.314Z,2.51
2023-01-17T00:52:15.701Z,2.54
2023-01-17T00:55:01.291Z,2.45
2023-01-17T00:57:46.797Z,2.29
2023-01-17T01:00:32.493Z,2.22
2023-01-17T01:03:18.404Z,2.17
2023-01-17T01:06:03.855Z,2.14
2023-01-17T01:08:49.428Z,2.33
2023-01-17T01:11:39.035Z,2.11
2023-01-17T01:14:27.063Z,2.26
2023-01-17T01:17:12.905Z,1.94
2023-01-17T01:19:58.305Z,2.18
2023-01-17T01:22:43.903Z,2.06
2023-01-17T01:25:29.338Z,2.28
2023-01-17T01:28:31.740Z,2.25
2023-01-17T01:31:23.888Z,2.25
2023-01-17T01:33:52.324Z,2.29
2023-01-17T01:36:19.436Z,1.87
2023-01-17T01:38:46.591Z,2.33
2023-01-17T01:41:13.568Z,2.22
2023-01-17T01:43:54.954Z,2.35
2023-01-17T01:46:31.576Z,1.57
2023-01-17T01:49:06.002Z,2.13
2023-01-17T01:51:40.141Z,2.23
2023-01-17T01:54:20.898Z,1.79
2023-01-17T01:56:49.958Z,2.04
2023-01-17T01:59:20.280Z,2.28
2023-01-17T02:01:50.419Z,2.12
2023-01-17T02:04:19.041Z,2.12
2023-01-17T02:06:54.294Z,2.16
2023-01-17T02:09:21.832Z,2.20
2023-01-17T02:11:49.904Z,2.07
2023-01-17T02:14:18.800Z,2.16
2023-01-17T02:16:55.042Z,2.24
2023-01-17T02:20:00.282Z,2.23
2023-01-17T02:22:33.094Z,2.25
2023-01-17T02:25:36.923Z,2.26
2023-01-17T02:28:27.837Z,2.27
2023-01-17T02:31:02.523Z,2.26
2023-01-17T02:33:38.472Z,2.27
2023-01-17T02:36:21.311Z,2.19
2023-01-17T02:38:50.647Z,2.13
2023-01-17T02:41:27.721Z,2.11
2023-01-17T02:43:54.647Z,1.81
2023-01-17T02:46:21.554Z,2.02
2023-01-17T02:48:49.513Z,2.17
2023-01-17T02:51:27.891Z,2.14
2023-01-17T02:54:42.432Z,1.78
2023-01-17T02:57:16.226Z,2.21
2023-01-17T03:00:01.881Z,2.15
2023-01-17T03:02:34.012Z,1.80
2023-01-17T03:05:27.808Z,1.85
2023-01-17T03:07:56.189Z,1.78
2023-01-17T03:10:24.247Z,1.44
2023-01-17T03:12:56.571Z,1.68
2023-01-17T03:15:23.494Z,1.62
2023-01-17T03:17:55.092Z,1.84
2023-01-17T03:20:22.823Z,1.95
2023-01-17T03:22:49.869Z,1.60
2023-01-17T03:25:17.035Z,2.10
2023-01-17T03:27:44.081Z,1.80
2023-01-17T03:30:11.677Z,1.88
2023-01-17T03:32:38.796Z,2.06
2023-01-17T03:35:06.597Z,2.21
2023-01-17T03:37:33.593Z,2.03
2023-01-17T03:40:00.659Z,1.55
2023-01-17T03:42:27.719Z,2.02
2023-01-17T03:44:54.822Z,1.76
2023-01-17T03:47:22.198Z,2.14
2023-01-17T03:49:49.199Z,2.01
2023-01-17T03:52:16.331Z,1.95
2023-01-17T03:54:43.501Z,2.14
2023-01-17T03:57:10.287Z,1.84
2023-01-17T03:59:37.308Z,1.93
2023-01-17T04:02:04.368Z,2.14
2023-01-17T04:04:31.362Z,1.92
2023-01-17T04:06:58.159Z,1.99
2023-01-17T04:09:25.115Z,1.83
2023-01-17T04:11:53.499Z,1.93
2023-01-17T04:14:20.332Z,2.00
2023-01-17T04:16:47.417Z,1.96
2023-01-17T04:19:14.475Z,1.81
2023-01-17T04:21:41.471Z,1.79
2023-01-17T04:24:08.568Z,1.76
2023-01-17T04:26:35.879Z,1.76
2023-01-17T04:29:03.349Z,2.04
2023-01-17T04:31:30.657Z,2.06
2023-01-17T04:33:57.532Z,1.69
2023-01-17T04:36:24.521Z,1.88
2023-01-17T04:38:51.405Z,1.95
2023-01-17T04:41:18.358Z,1.82
2023-01-17T04:43:45.178Z,1.81
2023-01-17T04:46:12.769Z,1.79
2023-01-17T04:48:39.669Z,1.95
2023-01-17T04:51:06.917Z,1.62
2023-01-17T04:53:33.997Z,1.17
2023-01-17T04:56:00.857Z,1.60
2023-01-17T04:58:28.029Z,1.76
2023-01-17T05:00:55.141Z,1.72
2023-01-17T05:03:23.275Z,1.80
2023-01-17T05:05:50.490Z,1.52
2023-01-17T05:08:17.722Z,1.59
2023-01-17T05:10:47.268Z,1.54
2023-01-17T05:13:15.096Z,1.63
2023-01-17T05:15:42.182Z,1.54
2023-01-17T05:18:13.452Z,1.58
2023-01-17T05:20:40.458Z,1.66
2023-01-17T05:23:07.719Z,1.73
2023-01-17T05:25:36.258Z,1.60
2023-01-17T05:28:03.785Z,1.60
2023-01-17T05:30:32.664Z,1.81
2023-01-17T05:32:59.934Z,1.72
2023-01-17T05:35:29.423Z,1.77
2023-01-17T05:37:56.727Z,1.48
2023-01-17T05:40:26.789Z,1.51
2023-01-17T05:42:56.111Z,1.60
2023-01-17T05:45:25.454Z,1.67
2023-01-17T05:47:54.555Z,1.66
2023-01-17T05:50:30.689Z,1.61
2023-01-17T05:53:00.397Z,1.74
2023-01-17T05:55:28.907Z,1.42
2023-01-17T05:57:56.407Z,1.73
2023-01-17T06:00:24.619Z,1.57
2023-01-17T06:02:54.472Z,1.41
2023-01-17T06:05:22.258Z,1.31
2023-01-17T06:07:49.291Z,1.23
2023-01-17T06:10:18.041Z,1.83
2023-01-17T06:12:46.388Z,1.66
2023-01-17T06:15:15.205Z,1.24
2023-01-17T06:17:42.382Z,1.27
2023-01-17T06:20:11.185Z,1.35
2023-01-17T06:22:38.268Z,1.28
2023-01-17T06:25:05.751Z,1.51
2023-01-17T06:27:32.792Z,1.51
2023-01-17T06:29:59.815Z,1.02
2023-01-17T06:32:27.311Z,1.67
2023-01-17T06:34:54.196Z,1.42
2023-01-17T06:37:21.185Z,1.56
2023-01-17T06:39:48.269Z,1.44
2023-01-17T06:42:15.397Z,1.35
2023-01-17T06:44:42.363Z,1.54
2023-01-17T06:47:09.258Z,1.26
2023-01-17T06:49:36.062Z,1.17
2023-01-17T06:52:03.008Z,1.50
2023-01-17T06:54:29.874Z,1.39
2023-01-17T06:56:56.761Z,1.39
2023-01-17T06:59:23.793Z,1.25
2023-01-17T07:01:50.743Z,1.52
2023-01-17T07:04:17.628Z,1.56
2023-01-17T07:06:44.732Z,1.58
2023-01-17T07:09:11.652Z,1.55
2023-01-17T07:11:38.600Z,1.56
2023-01-17T07:14:05.884Z,1.83
2023-01-17T07:16:34.260Z,1.85
2023-01-17T07:19:01.536Z,1.82
2023-01-17T07:21:28.413Z,1.62
2023-01-17T07:23:55.834Z,1.48
2023-01-17T07:26:22.692Z,1.57
2023-01-17T07:28:49.601Z,1.49
2023-01-17T07:31:16.623Z,1.59
2023-01-17T07:33:43.672Z,1.67
2023-01-17T07:36:11.080Z,1.83
2023-01-17T07:38:38.311Z,1.61
2023-01-17T07:41:05.395Z,1.44
2023-01-17T07:43:32.452Z,1.50
2023-01-17T07:46:01.932Z,1.62
2023-01-17T07:48:30.865Z,1.62
2023-01-17T07:50:58.631Z,1.58
2023-01-17T07:53:27.287Z,1.52
2023-01-17T07:55:54.966Z,1.37
2023-01-17T07:58:22.611Z,1.12
2023-01-17T08:00:50.014Z,1.54
2023-01-17T08:03:18.445Z,1.25
2023-01-17T08:05:55.551Z,1.50
2023-01-17T08:08:22.654Z,1.86
2023-01-17T08:10:51.602Z,1.62
2023-01-17T08:13:18.464Z,1.48
2023-01-17T08:15:51.146Z,1.85
2023-01-17T08:18:18.603Z,1.83
2023-01-17T08:20:46.096Z,1.69
2023-01-17T08:23:13.213Z,1.87
2023-01-17T08:25:40.613Z,1.80
2023-01-17T08:28:07.642Z,2.01
2023-01-17T08:30:35.526Z,1.83
2023-01-17T08:33:02.556Z,2.03
2023-01-17T08:35:29.821Z,2.08
2023-01-17T08:37:57.912Z,1.89
2023-01-17T08:40:25.042Z,1.99
2023-01-17T08:42:57.026Z,1.53
2023-01-17T08:45:24.388Z,1.69
2023-01-17T08:47:52.295Z,2.02
2023-01-17T08:50:22.884Z,2.10
2023-01-17T08:52:51.144Z,1.94
2023-01-17T08:55:18.134Z,2.06
2023-01-17T08:57:45.088Z,1.58
2023-01-17T09:00:12.337Z,1.83
2023-01-17T09:02:39.149Z,1.97
2023-01-17T09:05:06.909Z,2.18
2023-01-17T09:07:34.053Z,2.08
2023-01-17T09:10:00.954Z,2.11
2023-01-17T09:12:31.569Z,2.00
2023-01-17T09:14:58.671Z,2.23
2023-01-17T09:17:25.611Z,2.15
2023-01-17T09:19:52.515Z,2.35
2023-01-17T09:22:19.389Z,2.10
2023-01-17T09:24:46.360Z,2.26
2023-01-17T09:27:13.258Z,2.32
2023-01-17T09:29:40.153Z,2.49
2023-01-17T09:32:07.019Z,2.60
2023-01-17T09:34:33.900Z,2.60
2023-01-17T09:37:01.052Z,2.76
2023-01-17T09:39:27.981Z,2.83
2023-01-17T09:42:20.896Z,2.81
2023-01-17T09:44:52.186Z,2.98
2023-01-17T09:47:34.426Z,2.84
2023-01-17T09:50:08.733Z,3.12
2023-01-17T09:52:35.765Z,2.97
2023-01-17T09:55:07.898Z,3.01
2023-01-17T09:57:56.728Z,3.13
2023-01-17T10:01:04.856Z,3.33
2023-01-17T10:04:04.233Z,3.51
2023-01-17T10:06:52.044Z,3.45
2023-01-17T10:10:06.556Z,3.48
2023-01-17T10:12:51.700Z,3.44
2023-01-17T10:15:30.850Z,3.45
2023-01-17T10:18:00.934Z,3.55
2023-01-17T10:20:36.599Z,3.47
2023-01-17T10:23:31.294Z,3.61
2023-01-17T10:26:03.130Z,3.36
2023-01-17T10:28:51.305Z,3.49
2023-01-17T10:31:24.507Z,3.51
2023-01-17T10:34:12.628Z,3.45
2023-01-17T10:36:45.057Z,3.47
2023-01-17T10:39:31.529Z,3.39
2023-01-17T10:42:06.928Z,3.43
2023-01-17T10:44:43.578Z,3.48
2023-01-17T10:47:10.595Z,3.26
2023-01-17T10:49:42.812Z,3.02
2023-01-17T10:52:52.971Z,3.39
2023-01-17T10:55:34.866Z,3.28
2023-01-17T10:58:03.768Z,3.09
2023-01-17T11:00:49.154Z,3.83
2023-01-17T11:03:21.119Z,3.36
2023-01-17T11:06:16.340Z,3.70
2023-01-17T11:08:54.875Z,3.40
2023-01-17T11:11:25.279Z,2.88
2023-01-17T11:13:55.157Z,3.39
2023-01-17T11:16:27.511Z,4.04
2023-01-17T11:19:18.916Z,4.44
2023-01-17T11:22:01.889Z,4.36
2023-01-17T11:24:49.213Z,4.17
2023-01-17T11:27:27.970Z,4.76
2023-01-17T11:30:16.159Z,4.56
2023-01-17T11:33:12.396Z,4.57
2023-01-17T11:35:45.275Z,4.55
2023-01-17T11:38:18.625Z,4.09
2023-01-17T11:40:49.849Z,4.01
2023-01-17T11:43:27.738Z,3.39
2023-01-17T11:46:18.957Z,3.35
2023-01-17T11:48:56.368Z,3.53
2023-01-17T11:51:42.565Z,4.34
2023-01-17T11:54:21.957Z,3.73
2023-01-17T11:56:51.022Z,3.66
2023-01-17T11:59:32.040Z,4.45
2023-01-17T12:02:12.096Z,3.91
2023-01-17T12:04:45.692Z,4.35
2023-01-17T12:07:47.675Z,4.61
2023-01-17T12:10:21.817Z,4.60
2023-01-17T12:13:29.613Z,4.48
2023-01-17T12:16:31.771Z,4.49
2023-01-17T12:19:17.315Z,4.68
2023-01-17T12:21:57.337Z,4.80
2023-01-17T12:24:36.988Z,5.14
2023-01-17T12:27:17.001Z,4.82
2023-01-17T12:29:58.902Z,4.56
2023-01-17T12:32:55.089Z,5.08
2023-01-17T12:35:48.649Z,4.91
2023-01-17T12:38:32.062Z,4.45
2023-01-17T12:41:13.184Z,4.39
2023-01-17T12:43:41.957Z,4.18
2023-01-17T12:46:21.493Z,5.29
2023-01-17T12:48:57.237Z,4.74
2023-01-17T12:51:41.630Z,4.61
2023-01-17T12:54:29.034Z,5.49
2023-01-17T12:57:06.790Z,5.10
2023-01-17T12:59:42.587Z,4.88
2023-01-17T13:02:34.180Z,5.61
2023-01-17T13:05:29.048Z,5.37
2023-01-17T13:08:04.960Z,5.39
2023-01-17T13:10:59.507Z,4.52
2023-01-17T13:13:31.474Z,5.25
2023-01-17T13:16:13.159Z,5.01
2023-01-17T13:18:51.806Z,4.79
2023-01-17T13:21:33.394Z,5.32
2023-01-17T13:24:02.347Z,5.00
2023-01-17T13:27:06.849Z,4.90
2023-01-17T13:29:52.576Z,4.41
2023-01-17T13:32:59.454Z,5.10
2023-01-17T13:35:43.855Z,4.64
2023-01-17T13:38:21.340Z,4.62
2023-01-17T13:40:55.006Z,4.26
2023-01-17T13:43:30.722Z,4.20
2023-01-17T13:46:05.479Z,4.17
2023-01-17T13:48:37.609Z,3.73
2023-01-17T13:51:06.315Z,3.84
2023-01-17T13:53:37.077Z,4.20
2023-01-17T13:56:33.790Z,3.50
2023-01-17T14:03:10.524Z,4.42
2023-01-17T14:05:40.359Z,4.61
2023-01-17T14:08:19.492Z,4.21
2023-01-17T14:10:53.758Z,3.72
2023-01-17T14:13:39.494Z,4.32
2023-01-17T14:16:21.760Z,4.40
2023-01-17T14:18:49.507Z,4.23
2023-01-17T14:21:23.557Z,3.37
2023-01-17T14:23:57.815Z,3.56
2023-01-17T14:26:32.095Z,4.33
2023-01-17T14:29:20.179Z,4.31
2023-01-17T14:31:50.856Z,4.24
2023-01-17T14:34:25.153Z,4.12
2023-01-17T14:36:52.537Z,4.25
2023-01-17T14:39:22.885Z,4.34
2023-01-17T14:41:49.923Z,3.73
2023-01-17T14:44:17.409Z,3.92
2023-01-17T14:46:48.683Z,3.37
2023-01-17T14:49:24.252Z,3.03
2023-01-17T14:52:07.146Z,4.10
2023-01-17T14:54:34.408Z,3.75
2023-01-17T14:57:20.224Z,4.01
2023-01-17T14:59:47.210Z,3.41
2023-01-17T15:02:19.851Z,3.36
2023-01-17T15:04:55.246Z,3.93
2023-01-17T15:07:24.139Z,3.08
2023-01-17T15:09:51.584Z,3.18
2023-01-17T15:12:19.839Z,3.66
2023-01-17T15:14:46.972Z,2.77
2023-01-17T15:17:24.833Z,3.55
2023-01-17T15:19:57.237Z,3.44
2023-01-17T15:22:26.779Z,3.53
2023-01-17T15:24:54.781Z,3.26
2023-01-17T15:27:22.535Z,3.03
2023-01-17T15:29:50.467Z,2.51
2023-01-17T15:32:23.496Z,2.47
2023-01-17T15:34:52.547Z,3.14
2023-01-17T15:37:37.862Z,3.10
2023-01-17T15:40:22.844Z,2.86
2023-01-17T15:42:54.093Z,2.49
2023-01-17T15:45:27.660Z,2.82
2023-01-17T15:47:54.888Z,2.84
2023-01-17T15:50:23.935Z,3.01
2023-01-17T15:52:55.407Z,2.72
2023-01-17T15:55:39.547Z,2.22
2023-01-17T15:58:25.129Z,3.05
2023-01-17T16:00:52.204Z,2.71
2023-01-17T16:03:30.550Z,2.78
2023-01-17T16:06:00.958Z,2.30
2023-01-17T16:08:40.619Z,2.50
2023-01-17T16:11:11.837Z,2.72
2023-01-17T16:13:39.834Z,2.02
2023-01-17T16:16:35.869Z,2.72
2023-01-17T16:19:03.222Z,2.71
2023-01-17T16:21:31.657Z,2.36
2023-01-17T16:24:00.249Z,2.55
2023-01-17T16:26:29.296Z,2.47
2023-01-17T16:28:57.019Z,2.49
2023-01-17T16:31:24.100Z,2.74
2023-01-17T16:33:51.401Z,2.80
2023-01-17T16:36:19.783Z,2.91
2023-01-17T16:38:49.543Z,2.67
2023-01-17T16:41:16.556Z,2.60
2023-01-17T16:43:43.463Z,2.75
2023-01-17T16:46:12.108Z,2.70
2023-01-17T16:48:39.054Z,2.65
2023-01-17T16:51:07.377Z,2.56
2023-01-17T16:53:35.318Z,2.52
2023-01-17T16:56:09.777Z,2.12
2023-01-17T16:58:36.669Z,1.18
2023-01-17T17:01:17.781Z,1.62
2023-01-17T17:03:45.266Z,1.72
2023-01-17T17:06:12.504Z,1.55
2023-01-17T17:08:39.998Z,1.80
2023-01-17T17:11:23.191Z,1.80
2023-01-17T17:13:51.319Z,2.09
2023-01-17T17:16:29.977Z,2.12
2023-01-17T17:19:08.066Z,1.87
2023-01-17T17:21:37.556Z,2.21
2023-01-17T17:24:04.879Z,2.24
2023-01-17T17:26:35.487Z,2.18
2023-01-17T17:29:03.881Z,2.18
2023-01-17T17:31:31.009Z,1.89
2023-01-17T17:34:01.998Z,1.78
2023-01-17T17:36:30.013Z,2.12
2023-01-17T17:38:58.239Z,1.97
2023-01-17T17:41:28.522Z,1.60
2023-01-17T17:43:56.107Z,1.85
2023-01-17T17:46:27.345Z,1.61
2023-01-17T17:48:54.225Z,1.85
2023-01-17T17:51:32.738Z,1.97
2023-01-17T17:54:02.352Z,1.81
2023-01-17T17:56:31.158Z,1.96
2023-01-17T17:58:59.803Z,1.96
2023-01-17T18:01:27.347Z,1.95
2023-01-17T18:03:57.107Z,1.58
2023-01-17T18:06:24.239Z,1.78
2023-01-17T18:08:52.391Z,1.51
2023-01-17T18:11:22.763Z,1.41
2023-01-17T18:13:51.255Z,1.85
2023-01-17T18:16:27.053Z,1.63
2023-01-17T18:18:56.376Z,1.79
2023-01-17T18:21:35.302Z,1.71
2023-01-17T18:24:07.270Z,1.04
2023-01-17T18:26:36.593Z,1.74
2023-01-17T18:29:04.970Z,1.52
2023-01-17T18:31:32.093Z,1.61
2023-01-17T18:34:05.216Z,1.47
2023-01-17T18:36:34.985Z,1.25
2023-01-17T18:39:05.344Z,1.44
2023-01-17T18:41:32.689Z,1.42
2023-01-17T18:44:00.008Z,1.50
2023-01-17T18:46:27.072Z,1.41
2023-01-17T18:48:57.350Z,1.49
2023-01-17T18:51:25.399Z,1.44
2023-01-17T18:53:55.024Z,1.41
2023-01-17T18:56:23.530Z,1.38
2023-01-17T18:58:51.457Z,1.19
2023-01-17T19:01:20.029Z,1.44
2023-01-17T19:03:48.751Z,1.63
2023-01-17T19:06:19.353Z,1.59
2023-01-17T19:08:46.469Z,1.55
2023-01-17T19:11:13.320Z,1.17
2023-01-17T19:13:42.029Z,1.55
2023-01-17T19:16:13.769Z,1.14
2023-01-17T19:18:40.859Z,1.21
2023-01-17T19:21:11.063Z,1.29
2023-01-17T19:23:38.286Z,1.35
2023-01-17T19:26:06.756Z,1.47
2023-01-17T19:28:35.727Z,1.23
2023-01-17T19:31:11.443Z,1.44
2023-01-17T19:33:40.643Z,1.10
2023-01-17T19:36:10.657Z,1.28
2023-01-17T19:38:37.993Z,1.19
2023-01-17T19:41:26.858Z,0.97
2023-01-17T19:43:55.601Z,0.94
2023-01-17T19:46:26.068Z,1.02
2023-01-17T19:48:54.854Z,1.46
2023-01-17T19:51:22.399Z,1.30
2023-01-17T19:53:49.535Z,1.34
2023-01-17T19:56:22.231Z,1.08
2023-01-17T19:58:49.230Z,0.73
2023-01-17T20:01:25.276Z,1.30
2023-01-17T20:03:52.575Z,0.90
2023-01-17T20:06:22.550Z,0.99
2023-01-17T20:08:50.028Z,1.07
2023-01-17T20:11:19.840Z,1.01
2023-01-17T20:13:48.569Z,0.30
2023-01-17T20:16:17.055Z,0.97
2023-01-17T20:18:44.383Z,0.93
2023-01-17T20:21:14.603Z,1.06
2023-01-17T20:23:43.104Z,1.04
2023-01-17T20:26:15.304Z,1.05
2023-01-17T20:28:44.181Z,1.22
2023-01-17T20:31:16.630Z,0.74
2023-01-17T20:33:45.482Z,1.09
2023-01-17T20:36:15.080Z,1.09
2023-01-17T20:38:45.789Z,1.22
2023-01-17T20:41:18.703Z,1.11
2023-01-17T20:43:48.325Z,1.24
2023-01-17T20:46:18.226Z,1.23
2023-01-17T20:48:53.179Z,1.28
2023-01-17T20:51:21.066Z,0.82
2023-01-17T20:53:52.283Z,1.29
2023-01-17T20:56:19.887Z,1.33
2023-01-17T20:58:46.879Z,1.26
2023-01-17T21:01:20.265Z,0.73
2023-01-17T21:03:52.158Z,0.84
2023-01-17T21:06:22.548Z,1.20
2023-01-17T21:08:51.351Z,1.20
2023-01-17T21:11:23.601Z,1.15
2023-01-17T21:13:51.911Z,0.94
2023-01-17T21:16:21.749Z,0.86
2023-01-17T21:18:50.772Z,0.69
2023-01-17T21:21:24.220Z,0.60
2023-01-17T21:23:53.580Z,0.50
2023-01-17T21:26:23.080Z,0.87
2023-01-17T21:28:51.209Z,0.81
2023-01-17T21:31:24.938Z,0.85
2023-01-17T21:33:57.223Z,0.84
2023-01-17T21:36:26.689Z,0.60
2023-01-17T21:38:57.146Z,0.54
2023-01-17T21:41:29.417Z,0.94
2023-01-17T21:44:01.420Z,0.80
2023-01-17T21:46:29.551Z,0.81
2023-01-17T21:48:57.965Z,0.46
2023-01-17T21:51:45.675Z,0.41
2023-01-17T21:54:12.915Z,0.23
2023-01-17T21:56:58.673Z,0.67
2023-01-17T21:59:25.676Z,0.65
2023-01-17T22:01:52.826Z,0.38
2023-01-17T22:04:20.171Z,0.75
2023-01-17T22:06:47.166Z,0.66
2023-01-17T22:09:15.244Z,0.76
2023-01-17T22:11:42.218Z,0.55
2023-01-17T22:14:09.184Z,0.51
2023-01-17T22:16:36.526Z,0.82
2023-01-17T22:19:03.394Z,0.37
2023-01-17T22:21:30.395Z,0.62
2023-01-17T22:23:59.065Z,0.56
2023-01-17T22:26:29.190Z,0.80
2023-01-17T22:28:59.465Z,1.00
2023-01-17T22:31:28.463Z,0.94
2023-01-17T22:34:01.115Z,0.84
2023-01-17T22:36:32.342Z,0.84
2023-01-17T22:38:59.656Z,0.92
2023-01-17T22:41:33.901Z,0.95
2023-01-17T22:44:02.517Z,0.05
2023-01-17T22:46:32.170Z,0.96
2023-01-17T22:48:59.817Z,1.04
2023-01-17T22:51:28.548Z,0.89
2023-01-17T22:53:57.915Z,0.81
2023-01-17T22:56:27.573Z,0.92
2023-01-17T22:58:54.619Z,0.95
2023-01-17T23:01:24.349Z,0.78
2023-01-17T23:03:55.551Z,0.75
2023-01-17T23:06:25.744Z,0.97
2023-01-17T23:08:55.076Z,0.69
2023-01-17T23:11:42.632Z,0.76
2023-01-17T23:14:11.806Z,0.79
2023-01-17T23:16:58.871Z,0.47
2023-01-17T23:19:28.157Z,0.74
2023-01-17T23:22:16.380Z,0.69
2023-01-17T23:24:57.449Z,0.83
2023-01-17T23:28:04.485Z,0.77
2023-01-17T23:30:36.988Z,0.73
2023-01-17T23:33:06.632Z,0.83
2023-01-17T23:35:41.651Z,0.90
2023-01-17T23:38:33.887Z,0.96
2023-01-17T23:41:22.022Z,0.34
2023-01-17T23:43:56.927Z,0.30
2023-01-17T23:46:25.700Z,0.55
2023-01-17T23:48:52.762Z,0.67
2023-01-17T23:51:19.770Z,0.19
2023-01-17T23:53:46.668Z,0.75
2023-01-17T23:56:22.568Z,0.80
2023-01-17T23:58:49.440Z,0.60
